sensor_id;sensor_type;location;lat;lon;timestamp;temperature;humidity
27633;DHT22;15046;50.930;13.334;2023-05-07T00:01:59;12.40;94.40
27633;DHT22;15046;50.930;13.334;2023-05-07T00:04:25;12.40;94.40
27633;DHT22;15046;50.930;13.334;2023-05-07T00:06:51;12.40;94.40
27633;DHT22;15046;50.930;13.334;2023-05-07T00:09:16;12.30;94.40
27633;DHT22;15046;50.930;13.334;2023-05-07T00:11:42;12.30;94.50
27633;DHT22;15046;50.930;13.334;2023-05-07T00:14:08;12.20;94.60
27633;DHT22;15046;50.930;13.334;2023-05-07T00:16:34;12.20;94.70
27633;DHT22;15046;50.930;13.334;2023-05-07T00:19:00;12.20;94.80
27633;DHT22;15046;50.930;13.334;2023-05-07T00:21:25;12.20;94.80
27633;DHT22;15046;50.930;13.334;2023-05-07T00:23:53;12.20;94.90
27633;DHT22;15046;50.930;13.334;2023-05-07T00:26:18;12.10;95.00
27633;DHT22;15046;50.930;13.334;2023-05-07T00:28:44;12.10;95.00
27633;DHT22;15046;50.930;13.334;2023-05-07T00:31:10;12.10;95.10
27633;DHT22;15046;50.930;13.334;2023-05-07T00:33:36;12.00;95.20
27633;DHT22;15046;50.930;13.334;2023-05-07T00:36:02;12.00;95.30
27633;DHT22;15046;50.930;13.334;2023-05-07T00:38:28;11.90;95.40
27633;DHT22;15046;50.930;13.334;2023-05-07T00:40:53;11.90;95.50
27633;DHT22;15046;50.930;13.334;2023-05-07T00:43:19;11.90;95.60
27633;DHT22;15046;50.930;13.334;2023-05-07T00:45:46;11.80;95.70
27633;DHT22;15046;50.930;13.334;2023-05-07T00:48:11;11.80;95.90
27633;DHT22;15046;50.930;13.334;2023-05-07T00:50:37;11.70;96.00
27633;DHT22;15046;50.930;13.334;2023-05-07T00:53:04;11.70;96.20
27633;DHT22;15046;50.930;13.334;2023-05-07T00:55:30;11.60;96.40
27633;DHT22;15046;50.930;13.334;2023-05-07T00:57:56;11.60;96.70
27633;DHT22;15046;50.930;13.334;2023-05-07T01:00:21;11.60;96.90
27633;DHT22;15046;50.930;13.334;2023-05-07T01:02:47;11.70;97.20
27633;DHT22;15046;50.930;13.334;2023-05-07T01:05:16;11.60;97.40
27633;DHT22;15046;50.930;13.334;2023-05-07T01:07:43;11.60;97.70
27633;DHT22;15046;50.930;13.334;2023-05-07T01:10:09;11.50;97.90
27633;DHT22;15046;50.930;13.334;2023-05-07T01:12:37;11.50;98.30
27633;DHT22;15046;50.930;13.334;2023-05-07T01:15:04;11.50;98.80
27633;DHT22;15046;50.930;13.334;2023-05-07T01:17:38;11.50;99.20
27633;DHT22;15046;50.930;13.334;2023-05-07T01:20:05;11.50;99.70
27633;DHT22;15046;50.930;13.334;2023-05-07T01:22:36;11.50;99.90
27633;DHT22;15046;50.930;13.334;2023-05-07T01:25:03;11.50;99.90
27633;DHT22;15046;50.930;13.334;2023-05-07T01:27:29;11.50;99.90
27633;DHT22;15046;50.930;13.334;2023-05-07T01:29:55;11.40;99.90
27633;DHT22;15046;50.930;13.334;2023-05-07T01:32:32;11.40;99.90
27633;DHT22;15046;50.930;13.334;2023-05-07T01:35:00;11.40;99.90
27633;DHT22;15046;50.930;13.334;2023-05-07T01:37:26;11.40;99.90
27633;DHT22;15046;50.930;13.334;2023-05-07T01:39:53;11.30;99.90
27633;DHT22;15046;50.930;13.334;2023-05-07T01:42:20;11.30;99.90
27633;DHT22;15046;50.930;13.334;2023-05-07T01:44:46;11.30;99.90
27633;DHT22;15046;50.930;13.334;2023-05-07T01:47:13;11.20;99.90
27633;DHT22;15046;50.930;13.334;2023-05-07T01:49:40;11.20;99.90
27633;DHT22;15046;50.930;13.334;2023-05-07T01:52:06;11.20;99.90
27633;DHT22;15046;50.930;13.334;2023-05-07T01:54:32;11.10;99.90
27633;DHT22;15046;50.930;13.334;2023-05-07T01:56:58;11.10;99.90
27633;DHT22;15046;50.930;13.334;2023-05-07T01:59:24;11.10;99.90
27633;DHT22;15046;50.930;13.334;2023-05-07T02:01:49;11.10;99.90
27633;DHT22;15046;50.930;13.334;2023-05-07T02:04:15;11.10;99.90
27633;DHT22;15046;50.930;13.334;2023-05-07T02:06:41;11.10;99.90
27633;DHT22;15046;50.930;13.334;2023-05-07T02:09:07;11.00;99.90
27633;DHT22;15046;50.930;13.334;2023-05-07T02:11:34;11.00;99.90
27633;DHT22;15046;50.930;13.334;2023-05-07T02:14:00;11.00;99.90
27633;DHT22;15046;50.930;13.334;2023-05-07T02:16:26;10.90;99.90
27633;DHT22;15046;50.930;13.334;2023-05-07T02:18:52;10.90;99.90
27633;DHT22;15046;50.930;13.334;2023-05-07T02:21:18;10.90;99.90
27633;DHT22;15046;50.930;13.334;2023-05-07T02:23:43;10.90;99.90
27633;DHT22;15046;50.930;13.334;2023-05-07T02:26:10;10.90;99.90
27633;DHT22;15046;50.930;13.334;2023-05-07T02:28:36;10.90;99.90
27633;DHT22;15046;50.930;13.334;2023-05-07T02:31:05;10.80;99.90
27633;DHT22;15046;50.930;13.334;2023-05-07T02:33:31;10.80;99.90
27633;DHT22;15046;50.930;13.334;2023-05-07T02:35:57;10.80;99.90
27633;DHT22;15046;50.930;13.334;2023-05-07T02:38:23;10.80;99.90
27633;DHT22;15046;50.930;13.334;2023-05-07T02:40:49;10.80;99.90
27633;DHT22;15046;50.930;13.334;2023-05-07T02:43:15;10.80;99.90
27633;DHT22;15046;50.930;13.334;2023-05-07T02:45:40;10.70;99.90
27633;DHT22;15046;50.930;13.334;2023-05-07T02:48:06;10.80;99.90
27633;DHT22;15046;50.930;13.334;2023-05-07T02:50:32;10.80;99.90
27633;DHT22;15046;50.930;13.334;2023-05-07T02:52:58;10.70;99.90
27633;DHT22;15046;50.930;13.334;2023-05-07T02:55:24;10.70;99.90
27633;DHT22;15046;50.930;13.334;2023-05-07T02:57:50;10.70;99.90
27633;DHT22;15046;50.930;13.334;2023-05-07T03:00:17;10.60;99.90
27633;DHT22;15046;50.930;13.334;2023-05-07T03:02:44;10.60;99.90
27633;DHT22;15046;50.930;13.334;2023-05-07T03:05:10;10.60;99.90
27633;DHT22;15046;50.930;13.334;2023-05-07T03:07:37;10.60;99.90
27633;DHT22;15046;50.930;13.334;2023-05-07T03:10:04;10.50;99.90
27633;DHT22;15046;50.930;13.334;2023-05-07T03:12:30;10.50;99.90
27633;DHT22;15046;50.930;13.334;2023-05-07T03:14:57;10.50;99.90
27633;DHT22;15046;50.930;13.334;2023-05-07T03:17:22;10.50;99.90
27633;DHT22;15046;50.930;13.334;2023-05-07T03:19:48;10.50;99.90
27633;DHT22;15046;50.930;13.334;2023-05-07T03:22:14;10.50;99.90
27633;DHT22;15046;50.930;13.334;2023-05-07T03:24:40;10.50;99.90
27633;DHT22;15046;50.930;13.334;2023-05-07T03:27:06;10.50;99.90
27633;DHT22;15046;50.930;13.334;2023-05-07T03:29:31;10.50;99.90
27633;DHT22;15046;50.930;13.334;2023-05-07T03:31:57;10.40;99.90
27633;DHT22;15046;50.930;13.334;2023-05-07T03:34:23;10.40;99.90
27633;DHT22;15046;50.930;13.334;2023-05-07T03:36:49;10.40;99.90
27633;DHT22;15046;50.930;13.334;2023-05-07T03:39:15;10.40;99.90
27633;DHT22;15046;50.930;13.334;2023-05-07T03:41:41;10.50;99.90
27633;DHT22;15046;50.930;13.334;2023-05-07T03:44:07;10.50;99.90
27633;DHT22;15046;50.930;13.334;2023-05-07T03:46:33;10.50;99.90
27633;DHT22;15046;50.930;13.334;2023-05-07T03:48:59;10.40;99.90
27633;DHT22;15046;50.930;13.334;2023-05-07T03:51:25;10.40;99.90
27633;DHT22;15046;50.930;13.334;2023-05-07T03:53:51;10.40;99.90
27633;DHT22;15046;50.930;13.334;2023-05-07T03:56:23;10.40;99.90
27633;DHT22;15046;50.930;13.334;2023-05-07T03:58:52;10.40;99.90
27633;DHT22;15046;50.930;13.334;2023-05-07T04:01:18;10.40;99.90
27633;DHT22;15046;50.930;13.334;2023-05-07T04:03:43;10.40;99.90
27633;DHT22;15046;50.930;13.334;2023-05-07T04:06:09;10.40;99.90
27633;DHT22;15046;50.930;13.334;2023-05-07T04:08:36;10.40;99.90
27633;DHT22;15046;50.930;13.334;2023-05-07T04:11:01;10.40;99.90
27633;DHT22;15046;50.930;13.334;2023-05-07T04:13:29;10.40;99.90
27633;DHT22;15046;50.930;13.334;2023-05-07T04:15:56;10.40;99.90
27633;DHT22;15046;50.930;13.334;2023-05-07T04:18:22;10.40;99.90
27633;DHT22;15046;50.930;13.334;2023-05-07T04:20:48;10.40;99.90
27633;DHT22;15046;50.930;13.334;2023-05-07T04:23:17;10.40;99.90
27633;DHT22;15046;50.930;13.334;2023-05-07T04:25:42;10.40;99.90
27633;DHT22;15046;50.930;13.334;2023-05-07T04:28:08;10.40;99.90
27633;DHT22;15046;50.930;13.334;2023-05-07T04:30:34;10.50;99.90
27633;DHT22;15046;50.930;13.334;2023-05-07T04:33:00;10.50;99.90
27633;DHT22;15046;50.930;13.334;2023-05-07T04:35:26;10.50;99.90
27633;DHT22;15046;50.930;13.334;2023-05-07T04:37:52;10.50;99.90
27633;DHT22;15046;50.930;13.334;2023-05-07T04:40:18;10.50;99.90
27633;DHT22;15046;50.930;13.334;2023-05-07T04:42:43;10.50;99.90
27633;DHT22;15046;50.930;13.334;2023-05-07T04:45:09;10.50;99.90
27633;DHT22;15046;50.930;13.334;2023-05-07T04:47:36;10.60;99.90
27633;DHT22;15046;50.930;13.334;2023-05-07T04:50:02;10.50;99.90
27633;DHT22;15046;50.930;13.334;2023-05-07T04:52:28;10.60;99.90
27633;DHT22;15046;50.930;13.334;2023-05-07T04:54:53;10.60;99.90
27633;DHT22;15046;50.930;13.334;2023-05-07T04:57:19;10.60;99.90
27633;DHT22;15046;50.930;13.334;2023-05-07T04:59:45;10.60;99.90
27633;DHT22;15046;50.930;13.334;2023-05-07T05:02:11;10.60;99.90
27633;DHT22;15046;50.930;13.334;2023-05-07T05:04:37;10.60;99.90
27633;DHT22;15046;50.930;13.334;2023-05-07T05:07:04;10.60;99.90
27633;DHT22;15046;50.930;13.334;2023-05-07T05:09:30;10.60;99.90
27633;DHT22;15046;50.930;13.334;2023-05-07T05:11:56;10.50;99.90
27633;DHT22;15046;50.930;13.334;2023-05-07T05:14:22;10.50;99.90
27633;DHT22;15046;50.930;13.334;2023-05-07T05:16:48;10.50;99.90
27633;DHT22;15046;50.930;13.334;2023-05-07T05:19:13;10.50;99.90
27633;DHT22;15046;50.930;13.334;2023-05-07T05:21:39;10.50;99.90
27633;DHT22;15046;50.930;13.334;2023-05-07T05:24:05;10.50;99.90
27633;DHT22;15046;50.930;13.334;2023-05-07T05:26:31;10.50;99.90
27633;DHT22;15046;50.930;13.334;2023-05-07T05:28:57;10.50;99.90
27633;DHT22;15046;50.930;13.334;2023-05-07T05:31:22;10.50;99.90
27633;DHT22;15046;50.930;13.334;2023-05-07T05:33:48;10.50;99.90
27633;DHT22;15046;50.930;13.334;2023-05-07T05:36:14;10.50;99.90
27633;DHT22;15046;50.930;13.334;2023-05-07T05:38:40;10.50;99.90
27633;DHT22;15046;50.930;13.334;2023-05-07T05:41:06;10.50;99.90
27633;DHT22;15046;50.930;13.334;2023-05-07T05:43:31;10.50;99.90
27633;DHT22;15046;50.930;13.334;2023-05-07T05:45:57;10.50;99.90
27633;DHT22;15046;50.930;13.334;2023-05-07T05:48:23;10.60;99.90
27633;DHT22;15046;50.930;13.334;2023-05-07T05:50:49;10.60;99.90
27633;DHT22;15046;50.930;13.334;2023-05-07T05:53:15;10.60;99.90
27633;DHT22;15046;50.930;13.334;2023-05-07T05:55:41;10.60;99.90
27633;DHT22;15046;50.930;13.334;2023-05-07T05:58:07;10.60;99.90
27633;DHT22;15046;50.930;13.334;2023-05-07T06:00:34;10.70;99.90
27633;DHT22;15046;50.930;13.334;2023-05-07T06:03:00;10.70;99.90
27633;DHT22;15046;50.930;13.334;2023-05-07T06:05:25;10.70;99.90
27633;DHT22;15046;50.930;13.334;2023-05-07T06:07:51;10.70;99.90
27633;DHT22;15046;50.930;13.334;2023-05-07T06:10:17;10.70;99.90
27633;DHT22;15046;50.930;13.334;2023-05-07T06:12:43;10.70;99.90
27633;DHT22;15046;50.930;13.334;2023-05-07T06:15:10;10.80;99.90
27633;DHT22;15046;50.930;13.334;2023-05-07T06:17:36;10.70;99.90
27633;DHT22;15046;50.930;13.334;2023-05-07T06:20:01;10.80;99.90
27633;DHT22;15046;50.930;13.334;2023-05-07T06:22:27;10.80;99.90
27633;DHT22;15046;50.930;13.334;2023-05-07T06:24:53;10.90;99.90
27633;DHT22;15046;50.930;13.334;2023-05-07T06:27:19;10.90;99.90
27633;DHT22;15046;50.930;13.334;2023-05-07T06:29:45;11.00;99.90
27633;DHT22;15046;50.930;13.334;2023-05-07T06:32:12;11.00;99.90
27633;DHT22;15046;50.930;13.334;2023-05-07T06:34:39;11.10;99.90
27633;DHT22;15046;50.930;13.334;2023-05-07T06:37:05;11.10;99.90
27633;DHT22;15046;50.930;13.334;2023-05-07T06:39:32;11.30;99.90
27633;DHT22;15046;50.930;13.334;2023-05-07T06:41:59;11.40;99.90
27633;DHT22;15046;50.930;13.334;2023-05-07T06:44:25;11.50;99.90
27633;DHT22;15046;50.930;13.334;2023-05-07T06:46:51;11.60;99.90
27633;DHT22;15046;50.930;13.334;2023-05-07T06:49:17;11.70;99.90
27633;DHT22;15046;50.930;13.334;2023-05-07T06:51:43;11.70;99.90
27633;DHT22;15046;50.930;13.334;2023-05-07T06:54:08;11.60;99.90
27633;DHT22;15046;50.930;13.334;2023-05-07T06:56:34;11.60;99.90
27633;DHT22;15046;50.930;13.334;2023-05-07T06:59:01;11.60;99.90
27633;DHT22;15046;50.930;13.334;2023-05-07T07:01:28;11.70;99.90
27633;DHT22;15046;50.930;13.334;2023-05-07T07:03:54;11.90;99.90
27633;DHT22;15046;50.930;13.334;2023-05-07T07:06:20;12.10;99.90
27633;DHT22;15046;50.930;13.334;2023-05-07T07:08:45;12.10;99.90
27633;DHT22;15046;50.930;13.334;2023-05-07T07:11:11;12.10;99.90
27633;DHT22;15046;50.930;13.334;2023-05-07T07:13:37;12.10;99.90
27633;DHT22;15046;50.930;13.334;2023-05-07T07:16:03;12.00;99.90
27633;DHT22;15046;50.930;13.334;2023-05-07T07:18:29;11.90;99.90
27633;DHT22;15046;50.930;13.334;2023-05-07T07:20:55;11.80;99.90
27633;DHT22;15046;50.930;13.334;2023-05-07T07:23:21;11.70;99.90
27633;DHT22;15046;50.930;13.334;2023-05-07T07:25:47;11.70;99.90
27633;DHT22;15046;50.930;13.334;2023-05-07T07:28:13;11.60;99.90
27633;DHT22;15046;50.930;13.334;2023-05-07T07:30:39;11.60;99.90
27633;DHT22;15046;50.930;13.334;2023-05-07T07:33:05;11.70;99.90
27633;DHT22;15046;50.930;13.334;2023-05-07T07:35:31;11.70;99.90
27633;DHT22;15046;50.930;13.334;2023-05-07T07:37:58;11.60;99.90
27633;DHT22;15046;50.930;13.334;2023-05-07T07:40:24;11.50;99.90
27633;DHT22;15046;50.930;13.334;2023-05-07T07:42:51;11.40;99.90
27633;DHT22;15046;50.930;13.334;2023-05-07T07:45:17;11.30;99.90
27633;DHT22;15046;50.930;13.334;2023-05-07T07:47:43;11.10;99.90
27633;DHT22;15046;50.930;13.334;2023-05-07T07:50:09;11.00;99.90
27633;DHT22;15046;50.930;13.334;2023-05-07T07:52:35;11.00;99.90
27633;DHT22;15046;50.930;13.334;2023-05-07T07:55:01;10.90;99.90
27633;DHT22;15046;50.930;13.334;2023-05-07T07:57:27;11.00;99.90
27633;DHT22;15046;50.930;13.334;2023-05-07T07:59:53;11.10;99.90
27633;DHT22;15046;50.930;13.334;2023-05-07T08:02:19;11.20;99.90
27633;DHT22;15046;50.930;13.334;2023-05-07T08:04:45;11.20;99.90
27633;DHT22;15046;50.930;13.334;2023-05-07T08:07:11;11.30;99.90
27633;DHT22;15046;50.930;13.334;2023-05-07T08:09:39;11.40;99.90
27633;DHT22;15046;50.930;13.334;2023-05-07T08:12:06;11.50;99.90
27633;DHT22;15046;50.930;13.334;2023-05-07T08:14:32;11.50;99.90
27633;DHT22;15046;50.930;13.334;2023-05-07T08:16:57;11.50;99.90
27633;DHT22;15046;50.930;13.334;2023-05-07T08:19:23;11.40;99.90
27633;DHT22;15046;50.930;13.334;2023-05-07T08:21:49;11.50;99.90
27633;DHT22;15046;50.930;13.334;2023-05-07T08:24:16;11.50;99.90
27633;DHT22;15046;50.930;13.334;2023-05-07T08:26:44;11.60;99.90
27633;DHT22;15046;50.930;13.334;2023-05-07T08:29:10;11.50;99.90
27633;DHT22;15046;50.930;13.334;2023-05-07T08:31:38;11.60;99.90
27633;DHT22;15046;50.930;13.334;2023-05-07T08:34:07;11.70;99.90
27633;DHT22;15046;50.930;13.334;2023-05-07T08:36:33;11.70;99.90
27633;DHT22;15046;50.930;13.334;2023-05-07T08:38:59;11.70;99.90
27633;DHT22;15046;50.930;13.334;2023-05-07T08:41:25;11.60;99.90
27633;DHT22;15046;50.930;13.334;2023-05-07T08:43:51;11.50;99.90
27633;DHT22;15046;50.930;13.334;2023-05-07T08:46:19;11.50;99.90
27633;DHT22;15046;50.930;13.334;2023-05-07T08:48:48;11.50;99.90
27633;DHT22;15046;50.930;13.334;2023-05-07T08:51:18;11.50;99.90
27633;DHT22;15046;50.930;13.334;2023-05-07T08:53:44;11.40;99.90
27633;DHT22;15046;50.930;13.334;2023-05-07T08:56:10;11.40;99.90
27633;DHT22;15046;50.930;13.334;2023-05-07T08:58:37;11.40;99.90
27633;DHT22;15046;50.930;13.334;2023-05-07T09:01:08;11.40;99.90
27633;DHT22;15046;50.930;13.334;2023-05-07T09:03:36;11.40;99.90
27633;DHT22;15046;50.930;13.334;2023-05-07T09:06:02;11.50;99.90
27633;DHT22;15046;50.930;13.334;2023-05-07T09:08:28;11.50;99.90
27633;DHT22;15046;50.930;13.334;2023-05-07T09:10:54;11.60;99.90
27633;DHT22;15046;50.930;13.334;2023-05-07T09:13:21;11.60;99.90
27633;DHT22;15046;50.930;13.334;2023-05-07T09:15:47;11.50;99.90
27633;DHT22;15046;50.930;13.334;2023-05-07T09:18:12;11.50;99.90
27633;DHT22;15046;50.930;13.334;2023-05-07T09:20:39;11.40;99.90
27633;DHT22;15046;50.930;13.334;2023-05-07T09:23:06;11.50;99.90
27633;DHT22;15046;50.930;13.334;2023-05-07T09:25:33;11.60;99.90
27633;DHT22;15046;50.930;13.334;2023-05-07T09:28:04;11.60;99.90
27633;DHT22;15046;50.930;13.334;2023-05-07T09:30:33;11.60;99.90
27633;DHT22;15046;50.930;13.334;2023-05-07T09:33:00;11.50;99.90
27633;DHT22;15046;50.930;13.334;2023-05-07T09:35:27;11.40;99.90
27633;DHT22;15046;50.930;13.334;2023-05-07T09:37:55;11.40;99.90
27633;DHT22;15046;50.930;13.334;2023-05-07T09:40:29;11.30;99.90
27633;DHT22;15046;50.930;13.334;2023-05-07T09:42:55;11.50;99.90
27633;DHT22;15046;50.930;13.334;2023-05-07T09:45:28;11.60;99.90
27633;DHT22;15046;50.930;13.334;2023-05-07T09:47:56;11.80;99.90
27633;DHT22;15046;50.930;13.334;2023-05-07T09:50:35;11.90;99.90
27633;DHT22;15046;50.930;13.334;2023-05-07T09:53:03;11.80;99.90
27633;DHT22;15046;50.930;13.334;2023-05-07T09:55:29;11.80;99.90
27633;DHT22;15046;50.930;13.334;2023-05-07T09:57:55;11.70;99.90
27633;DHT22;15046;50.930;13.334;2023-05-07T10:00:22;11.70;99.90
27633;DHT22;15046;50.930;13.334;2023-05-07T10:02:50;11.60;99.90
27633;DHT22;15046;50.930;13.334;2023-05-07T10:05:21;11.70;99.90
27633;DHT22;15046;50.930;13.334;2023-05-07T10:07:48;11.70;99.90
27633;DHT22;15046;50.930;13.334;2023-05-07T10:10:14;11.80;99.90
27633;DHT22;15046;50.930;13.334;2023-05-07T10:12:41;11.90;99.90
27633;DHT22;15046;50.930;13.334;2023-05-07T10:15:10;12.00;99.90
27633;DHT22;15046;50.930;13.334;2023-05-07T10:17:38;12.00;99.90
27633;DHT22;15046;50.930;13.334;2023-05-07T10:20:08;12.00;99.90
27633;DHT22;15046;50.930;13.334;2023-05-07T10:22:42;12.10;99.90
27633;DHT22;15046;50.930;13.334;2023-05-07T10:25:22;12.10;99.90
27633;DHT22;15046;50.930;13.334;2023-05-07T10:27:50;12.20;99.90
27633;DHT22;15046;50.930;13.334;2023-05-07T10:30:48;12.30;99.90
27633;DHT22;15046;50.930;13.334;2023-05-07T10:33:23;12.40;99.90
27633;DHT22;15046;50.930;13.334;2023-05-07T10:35:57;12.40;99.90
27633;DHT22;15046;50.930;13.334;2023-05-07T10:38:24;12.50;99.90
27633;DHT22;15046;50.930;13.334;2023-05-07T10:40:51;12.50;99.90
27633;DHT22;15046;50.930;13.334;2023-05-07T10:43:17;12.60;99.90
27633;DHT22;15046;50.930;13.334;2023-05-07T10:45:43;12.60;99.90
27633;DHT22;15046;50.930;13.334;2023-05-07T10:48:10;12.70;99.90
27633;DHT22;15046;50.930;13.334;2023-05-07T10:50:37;12.90;99.90
27633;DHT22;15046;50.930;13.334;2023-05-07T10:55:48;12.90;99.90
27633;DHT22;15046;50.930;13.334;2023-05-07T11:01:01;12.80;99.90
27633;DHT22;15046;50.930;13.334;2023-05-07T11:03:28;12.80;99.90
27633;DHT22;15046;50.930;13.334;2023-05-07T11:06:13;12.80;99.90
27633;DHT22;15046;50.930;13.334;2023-05-07T11:08:58;12.80;99.90
27633;DHT22;15046;50.930;13.334;2023-05-07T11:11:49;12.90;99.90
27633;DHT22;15046;50.930;13.334;2023-05-07T11:17:07;13.10;99.90
27633;DHT22;15046;50.930;13.334;2023-05-07T11:19:51;13.30;99.90
27633;DHT22;15046;50.930;13.334;2023-05-07T11:25:00;13.50;99.90
27633;DHT22;15046;50.930;13.334;2023-05-07T11:27:26;13.50;99.90
27633;DHT22;15046;50.930;13.334;2023-05-07T11:29:52;13.60;99.90
27633;DHT22;15046;50.930;13.334;2023-05-07T11:32:31;13.60;99.90
27633;DHT22;15046;50.930;13.334;2023-05-07T11:34:59;13.70;99.90
27633;DHT22;15046;50.930;13.334;2023-05-07T11:37:26;13.70;99.90
27633;DHT22;15046;50.930;13.334;2023-05-07T11:40:07;13.90;99.90
27633;DHT22;15046;50.930;13.334;2023-05-07T11:42:35;14.00;99.90
27633;DHT22;15046;50.930;13.334;2023-05-07T11:45:02;14.10;99.90
27633;DHT22;15046;50.930;13.334;2023-05-07T11:47:30;14.10;99.90
27633;DHT22;15046;50.930;13.334;2023-05-07T11:49:56;14.10;99.90
27633;DHT22;15046;50.930;13.334;2023-05-07T11:52:27;14.00;99.90
27633;DHT22;15046;50.930;13.334;2023-05-07T11:54:54;14.00;99.90
27633;DHT22;15046;50.930;13.334;2023-05-07T11:57:23;14.00;99.90
27633;DHT22;15046;50.930;13.334;2023-05-07T11:59:53;13.90;99.90
27633;DHT22;15046;50.930;13.334;2023-05-07T12:02:19;13.90;99.90
27633;DHT22;15046;50.930;13.334;2023-05-07T12:04:45;14.00;99.90
27633;DHT22;15046;50.930;13.334;2023-05-07T12:07:14;13.90;99.90
27633;DHT22;15046;50.930;13.334;2023-05-07T12:09:45;13.90;99.90
27633;DHT22;15046;50.930;13.334;2023-05-07T12:12:11;13.90;99.90
27633;DHT22;15046;50.930;13.334;2023-05-07T12:14:41;13.90;99.90
27633;DHT22;15046;50.930;13.334;2023-05-07T12:17:08;14.00;99.90
27633;DHT22;15046;50.930;13.334;2023-05-07T12:19:34;14.00;99.90
27633;DHT22;15046;50.930;13.334;2023-05-07T12:22:02;13.90;99.90
27633;DHT22;15046;50.930;13.334;2023-05-07T12:24:28;13.90;99.90
27633;DHT22;15046;50.930;13.334;2023-05-07T12:26:54;13.90;99.90
27633;DHT22;15046;50.930;13.334;2023-05-07T12:29:23;14.00;99.90
27633;DHT22;15046;50.930;13.334;2023-05-07T12:31:50;14.00;99.90
27633;DHT22;15046;50.930;13.334;2023-05-07T12:34:16;14.10;99.90
27633;DHT22;15046;50.930;13.334;2023-05-07T12:36:42;14.50;99.90
27633;DHT22;15046;50.930;13.334;2023-05-07T12:39:08;15.00;99.90
27633;DHT22;15046;50.930;13.334;2023-05-07T12:41:53;15.60;99.90
27633;DHT22;15046;50.930;13.334;2023-05-07T12:44:22;16.20;99.90
27633;DHT22;15046;50.930;13.334;2023-05-07T12:46:49;16.50;99.90
27633;DHT22;15046;50.930;13.334;2023-05-07T12:49:15;16.90;99.90
27633;DHT22;15046;50.930;13.334;2023-05-07T12:51:41;17.20;99.30
27633;DHT22;15046;50.930;13.334;2023-05-07T12:54:07;17.70;98.50
27633;DHT22;15046;50.930;13.334;2023-05-07T12:56:35;18.40;97.30
27633;DHT22;15046;50.930;13.334;2023-05-07T12:59:01;19.20;96.00
27633;DHT22;15046;50.930;13.334;2023-05-07T13:01:31;19.50;94.10
27633;DHT22;15046;50.930;13.334;2023-05-07T13:04:03;19.30;93.30
27633;DHT22;15046;50.930;13.334;2023-05-07T13:06:37;19.00;92.70
27633;DHT22;15046;50.930;13.334;2023-05-07T13:09:03;19.10;92.50
27633;DHT22;15046;50.930;13.334;2023-05-07T13:11:30;19.30;92.00
27633;DHT22;15046;50.930;13.334;2023-05-07T13:13:56;19.20;91.40
27633;DHT22;15046;50.930;13.334;2023-05-07T13:16:22;19.70;91.40
27633;DHT22;15046;50.930;13.334;2023-05-07T13:18:47;20.50;90.20
27633;DHT22;15046;50.930;13.334;2023-05-07T13:21:13;20.80;87.50
27633;DHT22;15046;50.930;13.334;2023-05-07T13:23:39;20.60;86.30
27633;DHT22;15046;50.930;13.334;2023-05-07T13:26:05;20.70;86.70
27633;DHT22;15046;50.930;13.334;2023-05-07T13:28:32;20.90;85.40
27633;DHT22;15046;50.930;13.334;2023-05-07T13:30:57;20.90;84.70
27633;DHT22;15046;50.930;13.334;2023-05-07T13:33:24;20.90;83.50
27633;DHT22;15046;50.930;13.334;2023-05-07T13:35:50;20.90;82.80
27633;DHT22;15046;50.930;13.334;2023-05-07T13:38:16;21.10;82.30
27633;DHT22;15046;50.930;13.334;2023-05-07T13:40:42;21.00;81.50
27633;DHT22;15046;50.930;13.334;2023-05-07T13:43:07;20.90;81.60
27633;DHT22;15046;50.930;13.334;2023-05-07T13:45:33;21.00;80.70
27633;DHT22;15046;50.930;13.334;2023-05-07T13:47:59;20.90;80.00
27633;DHT22;15046;50.930;13.334;2023-05-07T13:50:25;20.90;80.30
27633;DHT22;15046;50.930;13.334;2023-05-07T13:52:52;21.00;79.40
27633;DHT22;15046;50.930;13.334;2023-05-07T13:55:19;21.00;78.70
27633;DHT22;15046;50.930;13.334;2023-05-07T13:57:45;21.00;78.30
27633;DHT22;15046;50.930;13.334;2023-05-07T14:00:12;21.30;78.30
27633;DHT22;15046;50.930;13.334;2023-05-07T14:02:38;21.80;79.00
27633;DHT22;15046;50.930;13.334;2023-05-07T14:05:04;22.20;77.00
27633;DHT22;15046;50.930;13.334;2023-05-07T14:07:30;21.80;75.60
27633;DHT22;15046;50.930;13.334;2023-05-07T14:09:57;21.70;75.90
27633;DHT22;15046;50.930;13.334;2023-05-07T14:12:23;21.80;75.50
27633;DHT22;15046;50.930;13.334;2023-05-07T14:14:48;21.80;75.60
27633;DHT22;15046;50.930;13.334;2023-05-07T14:17:16;22.00;75.70
27633;DHT22;15046;50.930;13.334;2023-05-07T14:19:43;22.40;75.90
27633;DHT22;15046;50.930;13.334;2023-05-07T14:22:08;22.80;75.00
27633;DHT22;15046;50.930;13.334;2023-05-07T14:24:35;22.90;73.10
27633;DHT22;15046;50.930;13.334;2023-05-07T14:27:01;22.60;72.80
27633;DHT22;15046;50.930;13.334;2023-05-07T14:29:27;22.30;72.80
27633;DHT22;15046;50.930;13.334;2023-05-07T14:31:53;22.10;73.40
27633;DHT22;15046;50.930;13.334;2023-05-07T14:34:19;22.20;73.00
27633;DHT22;15046;50.930;13.334;2023-05-07T14:36:44;22.30;72.60
27633;DHT22;15046;50.930;13.334;2023-05-07T14:39:10;22.20;72.20
27633;DHT22;15046;50.930;13.334;2023-05-07T14:41:36;22.10;72.50
27633;DHT22;15046;50.930;13.334;2023-05-07T14:44:02;22.00;72.20
27633;DHT22;15046;50.930;13.334;2023-05-07T14:46:29;22.10;71.90
27633;DHT22;15046;50.930;13.334;2023-05-07T14:48:56;22.20;71.60
27633;DHT22;15046;50.930;13.334;2023-05-07T14:51:22;22.50;71.30
27633;DHT22;15046;50.930;13.334;2023-05-07T14:53:50;22.70;70.20
27633;DHT22;15046;50.930;13.334;2023-05-07T14:56:16;22.70;70.40
27633;DHT22;15046;50.930;13.334;2023-05-07T14:58:43;22.70;70.10
27633;DHT22;15046;50.930;13.334;2023-05-07T15:01:09;22.70;69.80
27633;DHT22;15046;50.930;13.334;2023-05-07T15:03:35;22.70;70.30
27633;DHT22;15046;50.930;13.334;2023-05-07T15:06:02;22.40;69.80
27633;DHT22;15046;50.930;13.334;2023-05-07T15:08:28;22.30;70.10
27633;DHT22;15046;50.930;13.334;2023-05-07T15:10:54;22.00;69.80
27633;DHT22;15046;50.930;13.334;2023-05-07T15:13:21;21.90;71.10
27633;DHT22;15046;50.930;13.334;2023-05-07T15:15:47;22.10;71.20
27633;DHT22;15046;50.930;13.334;2023-05-07T15:18:13;22.20;70.60
27633;DHT22;15046;50.930;13.334;2023-05-07T15:20:40;22.40;69.90
27633;DHT22;15046;50.930;13.334;2023-05-07T15:23:07;22.70;69.70
27633;DHT22;15046;50.930;13.334;2023-05-07T15:25:42;23.00;69.00